createdAt,value
2022-12-05T00:00:42.176Z,36.80
2022-12-05T00:01:42.283Z,41.10
2022-12-05T00:02:42.231Z,39.00
2022-12-05T00:03:42.199Z,40.80
2022-12-05T00:04:42.234Z,38.60
2022-12-05T00:05:42.117Z,39.90
2022-12-05T00:06:42.109Z,43.20
2022-12-05T00:07:42.143Z,42.40
2022-12-05T00:08:42.107Z,40.10
2022-12-05T00:09:42.329Z,38.00
2022-12-05T00:10:42.060Z,40.10
2022-12-05T00:11:42.763Z,39.90
2022-12-05T00:12:42.052Z,40.30
2022-12-05T00:13:42.030Z,40.40
2022-12-05T00:14:42.068Z,38.10
2022-12-05T00:15:42.008Z,39.80
2022-12-05T00:16:42.049Z,40.20
2022-12-05T00:17:41.991Z,38.30
2022-12-05T00:18:41.991Z,36.70
2022-12-05T00:19:41.979Z,38.80
2022-12-05T00:20:41.970Z,43.90
2022-12-05T00:21:41.950Z,38.90
2022-12-05T00:22:41.938Z,40.30
2022-12-05T00:23:41.919Z,40.90
2022-12-05T00:24:41.909Z,35.70
2022-12-05T00:25:41.911Z,40.40
2022-12-05T00:26:41.889Z,42.60
2022-12-05T00:27:41.869Z,42.30
2022-12-05T00:28:41.880Z,41.10
2022-12-05T00:29:41.850Z,36.10
2022-12-05T00:30:41.871Z,39.40
2022-12-05T00:31:41.944Z,39.80
2022-12-05T00:32:41.821Z,37.60
2022-12-05T00:33:41.811Z,40.20
2022-12-05T00:34:41.811Z,39.20
2022-12-05T00:35:41.810Z,40.00
2022-12-05T00:36:41.780Z,42.60
2022-12-05T00:37:41.767Z,38.90
2022-12-05T00:38:41.750Z,38.50
2022-12-05T00:39:41.742Z,35.00
2022-12-05T00:40:41.750Z,37.30
2022-12-05T00:41:41.727Z,39.50
2022-12-05T00:42:41.714Z,37.20
2022-12-05T00:43:41.704Z,38.70
2022-12-05T00:44:41.690Z,39.00
2022-12-05T00:45:41.956Z,36.40
2022-12-05T00:46:41.670Z,38.60
2022-12-05T00:47:41.650Z,40.70
2022-12-05T00:48:41.651Z,37.50
2022-12-05T00:49:41.639Z,41.80
2022-12-05T00:50:41.643Z,39.30
2022-12-05T00:51:41.611Z,40.90
2022-12-05T00:52:41.604Z,40.30
2022-12-05T00:53:41.597Z,40.60
2022-12-05T00:54:41.579Z,37.40
2022-12-05T00:55:41.602Z,40.40
2022-12-05T00:56:41.578Z,37.50
2022-12-05T00:57:41.541Z,38.80
2022-12-05T00:58:41.532Z,40.20
2022-12-05T00:59:41.513Z,39.60
2022-12-05T01:00:41.521Z,42.50
2022-12-05T01:01:41.568Z,39.10
2022-12-05T01:02:41.515Z,39.00
2022-12-05T01:03:41.481Z,39.50
2022-12-05T01:04:41.473Z,40.10
2022-12-05T01:05:41.473Z,37.90
2022-12-05T01:06:41.441Z,40.30
2022-12-05T01:07:41.463Z,41.50
2022-12-05T01:08:41.422Z,36.90
2022-12-05T01:09:41.407Z,42.20
2022-12-05T01:10:41.422Z,40.10
2022-12-05T01:11:41.806Z,41.40
2022-12-05T01:12:41.383Z,40.20
2022-12-05T01:13:41.375Z,38.40
2022-12-05T01:14:41.354Z,40.80
2022-12-05T01:15:41.365Z,39.30
2022-12-05T01:16:41.417Z,37.70
2022-12-05T01:17:41.333Z,38.80
2022-12-05T01:18:41.318Z,39.30
2022-12-05T01:19:41.312Z,37.10
2022-12-05T01:20:41.322Z,38.20
2022-12-05T01:21:41.287Z,39.70
2022-12-05T01:22:41.278Z,39.90
2022-12-05T01:23:41.275Z,40.30
2022-12-05T01:24:41.273Z,39.70
2022-12-05T01:25:41.269Z,36.60
2022-12-05T01:26:41.235Z,36.70
2022-12-05T01:27:41.213Z,36.40
2022-12-05T01:28:41.258Z,36.50
2022-12-05T01:29:41.185Z,39.10
2022-12-05T01:30:41.197Z,36.60
2022-12-05T01:31:41.227Z,36.00
2022-12-05T01:32:41.176Z,40.10
2022-12-05T01:33:41.145Z,39.80
2022-12-05T01:34:41.147Z,40.30
2022-12-05T01:35:41.136Z,38.50
2022-12-05T01:36:41.115Z,37.70
2022-12-05T01:37:41.104Z,39.70
2022-12-05T01:38:41.284Z,38.50
2022-12-05T01:39:41.076Z,38.40
2022-12-05T01:40:41.085Z,37.00
2022-12-05T01:41:41.058Z,39.30
2022-12-05T01:42:41.046Z,38.20
2022-12-05T01:43:41.046Z,38.00
2022-12-05T01:44:41.036Z,35.40
2022-12-05T01:45:41.053Z,38.10
2022-12-05T01:46:41.005Z,42.90
2022-12-05T01:47:40.996Z,39.30
2022-12-05T01:48:40.986Z,35.60
2022-12-05T01:49:40.974Z,39.00
2022-12-05T01:50:40.983Z,38.40
2022-12-05T01:51:40.957Z,37.20
2022-12-05T01:52:40.944Z,36.30
2022-12-05T01:53:40.947Z,37.70
2022-12-05T01:54:40.927Z,38.00
2022-12-05T01:55:40.926Z,40.20
2022-12-05T01:56:40.897Z,40.50
2022-12-05T01:57:40.887Z,35.10
2022-12-05T01:58:40.885Z,38.90
2022-12-05T01:59:40.926Z,38.40
2022-12-05T02:00:40.881Z,41.40
2022-12-05T02:01:40.928Z,35.80
2022-12-05T02:02:40.883Z,39.10
2022-12-05T02:03:40.836Z,40.70
2022-12-05T02:04:40.816Z,41.00
2022-12-05T02:05:40.805Z,37.00
2022-12-05T02:06:40.793Z,38.90
2022-12-05T02:07:40.846Z,39.60
2022-12-05T02:08:40.772Z,40.90
2022-12-05T02:09:40.757Z,39.70
2022-12-05T02:10:40.757Z,37.80
2022-12-05T02:11:40.737Z,38.40
2022-12-05T02:12:40.716Z,36.30
2022-12-05T02:13:40.717Z,39.70
2022-12-05T02:14:40.705Z,39.90
2022-12-05T02:15:40.723Z,40.70
2022-12-05T02:16:40.783Z,39.10
2022-12-05T02:17:40.707Z,35.40
2022-12-05T02:18:40.656Z,39.40
2022-12-05T02:19:40.656Z,37.70
2022-12-05T02:20:40.656Z,37.90
2022-12-05T02:21:40.637Z,39.40
2022-12-05T02:22:40.626Z,40.00
2022-12-05T02:23:40.616Z,37.90
2022-12-05T02:24:40.597Z,37.70
2022-12-05T02:25:40.613Z,44.60
2022-12-05T02:26:40.649Z,41.40
2022-12-05T02:27:40.569Z,36.90
2022-12-05T02:28:40.578Z,38.40
2022-12-05T02:29:40.637Z,37.80
2022-12-05T02:30:40.538Z,36.70
2022-12-05T02:31:40.577Z,41.10
2022-12-05T02:32:40.517Z,41.00
2022-12-05T02:33:40.519Z,39.40
2022-12-05T02:34:40.489Z,40.30
2022-12-05T02:35:40.507Z,38.00
2022-12-05T02:36:40.467Z,40.00
2022-12-05T02:37:40.470Z,39.20
2022-12-05T02:38:40.451Z,37.80
2022-12-05T02:39:40.440Z,36.70
2022-12-05T02:40:40.534Z,39.10
2022-12-05T02:41:40.421Z,35.60
2022-12-05T02:42:40.407Z,40.80
2022-12-05T02:43:40.408Z,38.40
2022-12-05T02:44:40.399Z,41.70
2022-12-05T02:45:40.417Z,39.90
2022-12-05T02:46:40.391Z,39.70
2022-12-05T02:47:40.359Z,40.00
2022-12-05T02:48:40.340Z,40.70
2022-12-05T02:49:40.339Z,38.00
2022-12-05T02:50:40.414Z,40.40
2022-12-05T02:51:40.329Z,40.10
2022-12-05T02:52:40.307Z,37.80
2022-12-05T02:53:40.299Z,37.00
2022-12-05T02:54:40.279Z,38.80
2022-12-05T02:55:40.279Z,37.50
2022-12-05T02:56:40.269Z,40.80
2022-12-05T02:57:40.259Z,39.60
2022-12-05T02:58:40.240Z,36.10
2022-12-05T02:59:40.229Z,36.10
2022-12-05T03:00:40.218Z,38.50
2022-12-05T03:01:40.274Z,34.80
2022-12-05T03:02:40.197Z,41.20
2022-12-05T03:03:40.180Z,36.80
2022-12-05T03:04:40.234Z,39.20
2022-12-05T03:05:40.176Z,37.90
2022-12-05T03:06:40.158Z,38.90
2022-12-05T03:07:40.182Z,36.10
2022-12-05T03:08:40.131Z,38.80
2022-12-05T03:09:40.119Z,41.30
2022-12-05T03:10:40.178Z,40.00
2022-12-05T03:11:40.121Z,36.80
2022-12-05T03:12:40.080Z,37.20
2022-12-05T03:13:40.119Z,36.80
2022-12-05T03:14:40.069Z,36.90
2022-12-05T03:15:40.059Z,35.50
2022-12-05T03:16:40.110Z,38.30
2022-12-05T03:17:40.040Z,35.30
2022-12-05T03:18:40.020Z,41.80
2022-12-05T03:19:40.026Z,40.70
2022-12-05T03:20:40.031Z,38.80
2022-12-05T03:21:40.005Z,40.20
2022-12-05T03:22:39.995Z,40.40
2022-12-05T03:23:39.974Z,37.90
2022-12-05T03:24:39.960Z,39.10
2022-12-05T03:25:39.959Z,41.30
2022-12-05T03:26:39.971Z,39.70
2022-12-05T03:27:39.940Z,40.00
2022-12-05T03:28:39.931Z,40.40
2022-12-05T03:29:39.910Z,36.20
2022-12-05T03:30:39.944Z,38.50
2022-12-05T03:31:39.911Z,40.10
2022-12-05T03:32:39.900Z,40.60
2022-12-05T03:33:39.868Z,39.90
2022-12-05T03:34:39.850Z,42.40
2022-12-05T03:35:39.850Z,42.00
2022-12-05T03:36:39.850Z,42.00
2022-12-05T03:37:39.863Z,40.10
2022-12-05T03:38:39.810Z,42.30
2022-12-05T03:39:39.811Z,40.00
2022-12-05T03:40:39.812Z,40.90
2022-12-05T03:41:39.790Z,46.20
2022-12-05T03:42:39.775Z,41.30
2022-12-05T03:43:39.793Z,43.60
2022-12-05T03:44:39.811Z,40.30
2022-12-05T03:45:39.780Z,44.30
2022-12-05T03:46:39.828Z,41.00
2022-12-05T03:47:39.726Z,44.80
2022-12-05T03:48:39.702Z,44.70
2022-12-05T03:49:39.702Z,44.70
2022-12-05T03:50:39.691Z,41.80
2022-12-05T03:51:39.693Z,45.10
2022-12-05T03:53:11.033Z,42.30
2022-12-05T03:53:40.660Z,42.10
2022-12-05T03:54:39.641Z,43.20
2022-12-05T03:55:39.646Z,41.30
2022-12-05T03:56:39.656Z,45.10
2022-12-05T03:57:39.633Z,45.10
2022-12-05T03:58:39.609Z,44.10
2022-12-05T03:59:39.592Z,46.70
2022-12-05T04:00:39.572Z,44.50
2022-12-05T04:01:39.670Z,45.90
2022-12-05T04:02:39.562Z,45.40
2022-12-05T04:03:40.071Z,47.20
2022-12-05T04:04:39.534Z,44.60
2022-12-05T04:05:39.530Z,45.60
2022-12-05T04:06:39.550Z,47.80
2022-12-05T04:07:39.605Z,45.50
2022-12-05T04:08:39.492Z,45.60
2022-12-05T04:09:39.495Z,42.60
2022-12-05T04:10:39.491Z,48.30
2022-12-05T04:11:39.469Z,45.00
2022-12-05T04:12:39.492Z,47.80
2022-12-05T04:13:39.443Z,46.40
2022-12-05T04:14:39.459Z,47.50
2022-12-05T04:15:39.455Z,45.60
2022-12-05T04:16:39.460Z,45.70
2022-12-05T04:17:39.421Z,49.40
2022-12-05T04:18:39.391Z,47.10
2022-12-05T04:19:39.383Z,43.90
2022-12-05T04:20:39.371Z,47.30
2022-12-05T04:21:39.363Z,47.30
2022-12-05T04:22:39.362Z,46.40
2022-12-05T04:23:42.378Z,44.80
2022-12-05T04:24:40.327Z,46.90
2022-12-05T04:25:39.313Z,51.80
2022-12-05T04:26:39.311Z,48.00
2022-12-05T04:27:39.303Z,51.00
2022-12-05T04:28:39.287Z,52.10
2022-12-05T04:29:39.281Z,50.10
2022-12-05T04:30:39.281Z,51.30
2022-12-05T04:31:39.336Z,47.50
2022-12-05T04:32:39.264Z,47.10
2022-12-05T04:33:39.224Z,45.90
2022-12-05T04:34:39.235Z,47.50
2022-12-05T04:35:39.243Z,45.00
2022-12-05T04:36:39.221Z,49.90
2022-12-05T04:37:39.204Z,46.70
2022-12-05T04:38:39.185Z,46.00
2022-12-05T04:39:39.182Z,49.50
2022-12-05T04:40:39.160Z,48.10
2022-12-05T04:41:39.143Z,50.70
2022-12-05T04:42:39.151Z,46.40
2022-12-05T04:43:39.254Z,46.10
2022-12-05T04:44:39.123Z,46.00
2022-12-05T04:45:39.104Z,46.50
2022-12-05T04:46:39.118Z,46.00
2022-12-05T04:47:39.084Z,45.70
2022-12-05T04:48:39.072Z,46.00
2022-12-05T04:49:39.063Z,50.00
2022-12-05T04:50:39.073Z,51.40
2022-12-05T04:51:39.048Z,49.00
2022-12-05T04:52:39.044Z,47.60
2022-12-05T04:53:39.044Z,51.40
2022-12-05T04:54:39.009Z,49.80
2022-12-05T04:55:38.994Z,49.30
2022-12-05T04:56:38.985Z,53.10
2022-12-05T04:57:38.984Z,48.10
2022-12-05T04:58:38.978Z,49.00
2022-12-05T04:59:38.964Z,48.70
2022-12-05T05:00:38.944Z,45.30
2022-12-05T05:01:39.026Z,52.30
2022-12-05T05:02:39.041Z,46.80
2022-12-05T05:03:38.907Z,48.50
2022-12-05T05:04:38.916Z,49.60
2022-12-05T05:05:38.924Z,50.30
2022-12-05T05:06:38.883Z,51.00
2022-12-05T05:07:38.948Z,46.10
2022-12-05T05:08:38.894Z,50.40
2022-12-05T05:09:38.843Z,50.20
2022-12-05T05:10:38.855Z,51.10
2022-12-05T05:11:38.839Z,47.30
2022-12-05T05:12:38.824Z,47.20
2022-12-05T05:13:38.818Z,48.00
2022-12-05T05:14:38.795Z,52.40
2022-12-05T05:15:38.883Z,46.60
2022-12-05T05:16:38.827Z,52.70
2022-12-05T05:17:38.802Z,48.10
2022-12-05T05:18:38.757Z,50.40
2022-12-05T05:19:38.754Z,50.70
2022-12-05T05:20:38.737Z,53.30
2022-12-05T05:21:38.733Z,49.50
2022-12-05T05:22:38.726Z,51.80
2022-12-05T05:23:38.704Z,57.10
2022-12-05T05:24:38.693Z,50.70
2022-12-05T05:25:38.685Z,53.70
2022-12-05T05:26:38.675Z,52.60
2022-12-05T05:27:38.673Z,57.80
2022-12-05T05:28:38.673Z,56.10
2022-12-05T05:29:38.658Z,51.20
2022-12-05T05:30:38.626Z,49.80
2022-12-05T05:31:38.686Z,58.40
2022-12-05T05:32:38.608Z,56.90
2022-12-05T05:33:38.607Z,55.70
2022-12-05T05:34:38.585Z,60.10
2022-12-05T05:35:38.606Z,54.20
2022-12-05T05:36:38.574Z,57.10
2022-12-05T05:37:38.555Z,59.60
2022-12-05T05:38:38.563Z,49.60
2022-12-05T05:39:38.535Z,54.40
2022-12-05T05:40:38.524Z,53.20
2022-12-05T05:41:38.514Z,56.50
2022-12-05T05:42:38.505Z,52.80
2022-12-05T05:43:38.516Z,55.10
2022-12-05T05:44:38.486Z,56.70
2022-12-05T05:45:38.465Z,55.40
2022-12-05T05:46:38.581Z,53.10
2022-12-05T05:47:38.457Z,52.70
2022-12-05T05:48:38.445Z,56.20
2022-12-05T05:49:38.454Z,51.30
2022-12-05T05:50:38.424Z,57.10
2022-12-05T05:51:38.414Z,53.80
2022-12-05T05:52:38.394Z,53.70
2022-12-05T05:53:38.407Z,54.80
2022-12-05T05:54:38.374Z,59.90
2022-12-05T05:55:38.396Z,54.20
2022-12-05T05:56:38.385Z,55.00
2022-12-05T05:57:38.345Z,54.30
2022-12-05T05:58:38.353Z,59.50
2022-12-05T05:59:38.325Z,58.20
2022-12-05T06:00:38.315Z,55.10
2022-12-05T06:01:38.296Z,53.40
2022-12-05T06:02:38.362Z,56.20
2022-12-05T06:03:38.526Z,57.10
2022-12-05T06:04:38.352Z,59.90
2022-12-05T06:05:38.257Z,61.80
2022-12-05T06:06:38.247Z,56.60
2022-12-05T06:07:38.292Z,51.90
2022-12-05T06:08:38.236Z,55.50
2022-12-05T06:09:38.216Z,53.80
2022-12-05T06:10:38.208Z,55.30
2022-12-05T06:11:38.197Z,59.70
2022-12-05T06:12:38.177Z,59.30
2022-12-05T06:13:38.187Z,56.60
2022-12-05T06:14:38.157Z,56.80
2022-12-05T06:15:38.150Z,53.30
2022-12-05T06:16:38.242Z,52.50
2022-12-05T06:17:38.142Z,55.90
2022-12-05T06:18:38.126Z,52.10
2022-12-05T06:19:38.111Z,56.30
2022-12-05T06:20:38.097Z,56.30
2022-12-05T06:21:38.088Z,58.50
2022-12-05T06:22:38.075Z,57.30
2022-12-05T06:23:38.108Z,56.40
2022-12-05T06:24:38.057Z,53.60
2022-12-05T06:25:38.146Z,49.30
2022-12-05T06:26:38.047Z,53.70
2022-12-05T06:27:38.027Z,53.10
2022-12-05T06:28:38.027Z,49.00
2022-12-05T06:29:38.009Z,48.50
2022-12-05T06:30:37.987Z,49.10
2022-12-05T06:31:38.062Z,45.90
2022-12-05T06:32:37.985Z,43.60
2022-12-05T06:33:37.969Z,39.30
2022-12-05T06:34:37.954Z,38.70
2022-12-05T06:35:37.947Z,37.30
2022-12-05T06:36:38.147Z,41.10
2022-12-05T06:37:38.275Z,34.40
2022-12-05T06:38:41.802Z,38.00
2022-12-05T06:39:37.900Z,35.80
2022-12-05T06:40:38.095Z,35.70
2022-12-05T06:41:37.907Z,32.50
2022-12-05T06:42:38.317Z,32.90
2022-12-05T06:43:37.899Z,31.00
2022-12-05T06:44:37.877Z,35.30
2022-12-05T06:45:37.913Z,34.90
2022-12-05T06:46:37.818Z,31.90
2022-12-05T06:47:37.818Z,31.60
2022-12-05T06:48:37.811Z,31.70
2022-12-05T06:49:38.360Z,30.70
2022-12-05T06:50:37.798Z,30.40
2022-12-05T06:51:37.791Z,31.60
2022-12-05T06:52:37.757Z,32.50
2022-12-05T06:53:37.780Z,35.20
2022-12-05T06:54:37.737Z,36.70
2022-12-05T06:55:37.730Z,32.80
2022-12-05T06:56:37.729Z,32.10
2022-12-05T06:57:37.709Z,31.20
2022-12-05T06:58:37.722Z,34.30
2022-12-05T06:59:37.691Z,38.60
2022-12-05T07:00:37.723Z,35.10
2022-12-05T07:01:37.727Z,33.90
2022-12-05T07:02:37.725Z,32.50
2022-12-05T07:03:37.657Z,32.30
2022-12-05T07:04:37.629Z,33.50
2022-12-05T07:05:37.627Z,33.70
2022-12-05T07:06:37.618Z,35.30
2022-12-05T07:07:37.682Z,33.40
2022-12-05T07:08:37.599Z,35.00
2022-12-05T07:09:37.590Z,34.30
2022-12-05T07:10:37.573Z,36.50
2022-12-05T07:11:37.559Z,36.40
2022-12-05T07:12:37.547Z,34.80
2022-12-05T07:13:37.574Z,30.60
2022-12-05T07:14:47.536Z,33.50
2022-12-05T07:15:38.510Z,31.50
2022-12-05T07:16:37.639Z,27.70
2022-12-05T07:17:37.537Z,32.50
2022-12-05T07:18:37.512Z,36.20
2022-12-05T07:19:37.484Z,26.50
2022-12-05T07:21:03.867Z,29.20
2022-12-05T07:21:38.450Z,34.40
2022-12-05T07:22:37.447Z,32.40
2022-12-05T07:23:37.454Z,28.00
2022-12-05T07:24:37.420Z,26.50
2022-12-05T07:25:37.420Z,22.40
2022-12-05T07:26:37.400Z,26.40
2022-12-05T07:27:37.402Z,24.80
2022-12-05T07:28:37.391Z,21.40
2022-12-05T07:29:37.380Z,24.90
2022-12-05T07:30:37.358Z,22.40
2022-12-05T07:31:37.392Z,22.60
2022-12-05T07:32:37.342Z,25.40
2022-12-05T07:33:37.330Z,23.30
2022-12-05T07:34:37.318Z,23.10
2022-12-05T07:35:37.309Z,23.90
2022-12-05T07:36:37.300Z,22.60
2022-12-05T07:37:37.289Z,24.50
2022-12-05T07:38:37.322Z,26.10
2022-12-05T07:39:37.273Z,23.60
2022-12-05T07:40:37.279Z,28.50
2022-12-05T07:41:37.242Z,25.80
2022-12-05T07:42:37.221Z,26.60
2022-12-05T07:43:37.241Z,23.50
2022-12-05T07:44:37.218Z,24.20
2022-12-05T07:45:37.257Z,23.40
2022-12-05T07:46:37.189Z,22.10
2022-12-05T07:47:37.221Z,22.70
2022-12-05T07:48:37.161Z,24.90
2022-12-05T07:49:37.172Z,23.10
2022-12-05T07:50:37.140Z,24.00
2022-12-05T07:51:37.130Z,26.20
2022-12-05T07:52:37.121Z,23.60
2022-12-05T07:53:37.127Z,26.60
2022-12-05T07:54:37.120Z,22.80
2022-12-05T07:55:37.102Z,24.00
2022-12-05T07:56:37.088Z,22.10
2022-12-05T07:57:37.071Z,25.20
2022-12-05T07:58:37.065Z,24.60
2022-12-05T07:59:37.060Z,27.10
2022-12-05T08:00:37.040Z,19.70
2022-12-05T08:01:37.114Z,21.40
2022-12-05T08:02:40.567Z,21.20
2022-12-05T08:03:37.019Z,22.20
2022-12-05T08:04:37.031Z,23.00
2022-12-05T08:05:36.995Z,24.30
2022-12-05T08:06:36.972Z,22.20
2022-12-05T08:07:36.992Z,21.10
2022-12-05T08:08:36.961Z,21.40
2022-12-05T08:09:36.951Z,24.30
2022-12-05T08:10:36.940Z,22.60
2022-12-05T08:11:36.930Z,22.00
2022-12-05T08:12:36.912Z,23.50
2022-12-05T08:13:36.903Z,26.20
2022-12-05T08:14:36.903Z,23.40
2022-12-05T08:15:36.880Z,25.80
2022-12-05T08:16:37.335Z,26.70
2022-12-05T08:17:36.864Z,21.40
2022-12-05T08:18:36.857Z,32.10
2022-12-05T08:19:36.843Z,28.10
2022-12-05T08:20:36.882Z,22.90
2022-12-05T08:21:36.840Z,24.50
2022-12-05T08:22:36.842Z,26.30
2022-12-05T08:23:36.809Z,24.90
2022-12-05T08:24:36.823Z,24.50
2022-12-05T08:25:36.800Z,25.30
2022-12-05T08:26:36.763Z,30.00
2022-12-05T08:27:36.752Z,26.10
2022-12-05T08:28:36.759Z,24.90
2022-12-05T08:29:36.750Z,24.80
2022-12-05T08:30:36.771Z,23.30
2022-12-05T08:31:36.715Z,25.20
2022-12-05T08:32:36.715Z,23.60
2022-12-05T08:33:36.692Z,24.40
2022-12-05T08:34:36.693Z,24.00
2022-12-05T08:35:36.674Z,22.80
2022-12-05T08:36:36.661Z,25.50
2022-12-05T08:37:36.655Z,25.40
2022-12-05T08:38:36.633Z,21.00
2022-12-05T08:39:38.688Z,24.60
2022-12-05T08:40:36.614Z,28.00
2022-12-05T08:41:36.644Z,24.60
2022-12-05T08:42:36.596Z,25.50
2022-12-05T08:43:36.594Z,24.40
2022-12-05T08:44:36.573Z,26.70
2022-12-05T08:45:36.564Z,25.60
2022-12-05T08:46:36.612Z,24.00
2022-12-05T08:47:36.550Z,26.10
2022-12-05T08:48:36.524Z,24.00
2022-12-05T08:49:36.543Z,25.80
2022-12-05T08:50:36.513Z,26.90
2022-12-05T08:51:36.761Z,27.20
2022-12-05T08:52:36.483Z,26.60
2022-12-05T08:53:42.454Z,28.60
2022-12-05T08:54:37.475Z,23.30
2022-12-05T08:55:36.454Z,26.60
2022-12-05T08:56:36.444Z,26.40
2022-12-05T08:57:36.435Z,26.40
2022-12-05T08:58:36.415Z,27.90
2022-12-05T08:59:36.435Z,26.90
2022-12-05T09:00:36.394Z,29.80
2022-12-05T09:01:36.435Z,26.90
2022-12-05T09:02:36.424Z,29.00
2022-12-05T09:03:36.363Z,26.00
2022-12-05T09:04:36.422Z,28.90
2022-12-05T09:05:36.355Z,29.80
2022-12-05T09:06:36.355Z,31.90
2022-12-05T09:07:36.346Z,26.50
2022-12-05T09:08:36.308Z,28.60
2022-12-05T09:09:36.324Z,30.50
2022-12-05T09:10:36.286Z,28.80
2022-12-05T09:11:36.280Z,30.30
2022-12-05T09:12:36.259Z,30.50
2022-12-05T09:13:36.260Z,27.70
2022-12-05T09:14:36.366Z,28.50
2022-12-05T09:15:36.267Z,33.30
2022-12-05T09:16:38.416Z,28.90
2022-12-05T09:17:36.215Z,29.10
2022-12-05T09:18:36.194Z,28.00
2022-12-05T09:19:36.207Z,26.50
2022-12-05T09:20:36.175Z,29.50
2022-12-05T09:21:36.172Z,28.80
2022-12-05T09:22:36.153Z,30.40
2022-12-05T09:23:36.147Z,26.50
2022-12-05T09:24:36.137Z,27.60
2022-12-05T09:25:36.196Z,30.40
2022-12-05T09:26:36.106Z,29.70
2022-12-05T09:27:36.107Z,31.80
2022-12-05T09:28:36.087Z,32.50
2022-12-05T09:29:36.085Z,27.30
2022-12-05T09:30:36.075Z,32.10
2022-12-05T09:31:36.112Z,29.40
2022-12-05T09:32:36.046Z,29.30
2022-12-05T09:33:36.038Z,30.70
2022-12-05T09:34:36.027Z,26.40
2022-12-05T09:35:36.017Z,28.00
2022-12-05T09:36:36.026Z,24.60
2022-12-05T09:37:40.108Z,29.40
2022-12-05T09:38:35.988Z,34.00
2022-12-05T09:39:35.984Z,32.30
2022-12-05T09:40:35.958Z,29.10
2022-12-05T09:41:36.022Z,34.20
2022-12-05T09:42:35.929Z,27.70
2022-12-05T09:43:35.969Z,27.10
2022-12-05T09:44:35.939Z,31.90
2022-12-05T09:45:35.898Z,28.30
2022-12-05T09:46:36.093Z,27.00
2022-12-05T09:47:35.888Z,29.40
2022-12-05T09:48:35.868Z,32.40
2022-12-05T09:49:35.869Z,32.60
2022-12-05T09:50:35.848Z,38.30
2022-12-05T09:51:35.838Z,29.20
2022-12-05T09:52:35.855Z,35.50
2022-12-05T09:53:35.856Z,33.90
2022-12-05T09:54:59.953Z,39.60
2022-12-05T09:55:40.890Z,32.80
2022-12-05T09:56:42.437Z,31.00
2022-12-05T09:57:35.769Z,36.00
2022-12-05T09:58:35.790Z,35.20
2022-12-05T09:59:35.758Z,28.40
2022-12-05T10:00:37.817Z,28.80
2022-12-05T10:01:35.792Z,28.80
2022-12-05T10:02:35.720Z,25.40
2022-12-05T10:03:35.706Z,24.80
2022-12-05T10:04:35.789Z,29.10
2022-12-05T10:05:35.689Z,25.10
2022-12-05T10:06:35.671Z,25.10
2022-12-05T10:07:35.713Z,26.70
2022-12-05T10:08:35.722Z,27.40
2022-12-05T10:09:36.343Z,27.00
2022-12-05T10:10:35.660Z,25.70
2022-12-05T10:11:35.620Z,31.20
2022-12-05T10:12:35.610Z,27.70
2022-12-05T10:13:35.600Z,30.60
2022-12-05T10:14:35.589Z,32.40
2022-12-05T10:15:35.640Z,29.80
2022-12-05T10:16:35.650Z,28.90
2022-12-05T10:17:35.551Z,30.20
2022-12-05T10:18:35.540Z,30.30
2022-12-05T10:19:35.724Z,29.00
2022-12-05T10:20:35.539Z,30.30
2022-12-05T10:21:35.512Z,30.20
2022-12-05T10:22:35.503Z,32.90
2022-12-05T10:23:56.461Z,35.10
2022-12-05T10:24:36.483Z,34.90
2022-12-05T10:25:35.485Z,35.80
2022-12-05T10:26:35.464Z,40.50
2022-12-05T10:27:39.783Z,38.10
2022-12-05T10:28:36.440Z,46.10
2022-12-05T10:29:35.432Z,34.90
2022-12-05T10:30:35.442Z,29.70
2022-12-05T10:31:35.470Z,35.40
2022-12-05T10:32:35.400Z,34.00
2022-12-05T10:33:35.412Z,34.60
2022-12-05T10:34:35.384Z,34.10
2022-12-05T10:35:35.373Z,34.70
2022-12-05T10:36:35.352Z,31.10
2022-12-05T10:37:35.340Z,33.30
2022-12-05T10:38:35.331Z,31.20
2022-12-05T10:39:35.311Z,35.60
2022-12-05T10:40:35.335Z,125.10
2022-12-05T10:41:35.300Z,82.50
2022-12-05T10:42:35.292Z,64.90
2022-12-05T10:43:35.272Z,129.30
2022-12-05T10:44:35.262Z,93.60
2022-12-05T10:45:35.262Z,223.40
2022-12-05T10:46:35.369Z,223.10
2022-12-05T10:47:35.223Z,129.80
2022-12-05T10:48:35.217Z,64.00
2022-12-05T10:49:35.240Z,65.70
2022-12-05T10:50:35.214Z,36.40
2022-12-05T10:51:37.759Z,56.80
2022-12-05T10:52:35.178Z,72.60
2022-12-05T10:53:35.153Z,37.10
2022-12-05T10:54:35.158Z,35.30
2022-12-05T10:55:35.148Z,48.30
2022-12-05T10:56:35.153Z,49.60
2022-12-05T10:57:35.113Z,30.80
2022-12-05T10:58:35.112Z,25.40
2022-12-05T10:59:35.115Z,25.50
2022-12-05T11:00:35.116Z,27.00
2022-12-05T11:01:35.122Z,45.80
2022-12-05T11:02:35.073Z,44.80
2022-12-05T11:03:35.053Z,42.40
2022-12-05T11:04:35.103Z,31.60
2022-12-05T11:05:46.720Z,31.60
2022-12-05T11:06:35.047Z,28.80
2022-12-05T11:07:35.105Z,28.80
2022-12-05T11:09:03.019Z,30.80
2022-12-05T11:09:35.997Z,30.00
2022-12-05T11:10:35.072Z,31.00
2022-12-05T11:11:34.981Z,30.50
2022-12-05T11:12:34.982Z,32.20
2022-12-05T11:13:34.955Z,28.30
2022-12-05T11:14:34.934Z,27.30
2022-12-05T11:15:34.918Z,28.60
2022-12-05T11:16:35.010Z,30.30
2022-12-05T11:17:34.902Z,29.70
2022-12-05T11:18:36.354Z,31.90
2022-12-05T11:19:34.905Z,32.10
2022-12-05T11:20:34.876Z,30.90
2022-12-05T11:21:34.863Z,33.60
2022-12-05T11:22:34.854Z,33.00
2022-12-05T11:23:34.884Z,33.00
2022-12-05T11:24:34.835Z,33.20
2022-12-05T11:25:34.813Z,27.70
2022-12-05T11:26:34.829Z,35.00
2022-12-05T11:27:34.803Z,31.20
2022-12-05T11:28:34.797Z,32.80
2022-12-05T11:29:34.765Z,30.30
2022-12-05T11:30:34.805Z,29.70
2022-12-05T11:31:34.863Z,33.00
2022-12-05T11:32:34.743Z,31.60
2022-12-05T11:33:34.732Z,28.70
2022-12-05T11:34:34.725Z,32.30
2022-12-05T11:35:34.718Z,33.00
2022-12-05T11:36:34.730Z,30.20
2022-12-05T11:37:34.686Z,27.80
2022-12-05T11:38:34.690Z,28.30
2022-12-05T11:39:34.656Z,26.70
2022-12-05T11:40:38.492Z,26.50
2022-12-05T11:41:34.644Z,24.30
2022-12-05T11:42:34.625Z,27.90
2022-12-05T11:43:34.620Z,24.70
2022-12-05T11:44:34.625Z,23.70
2022-12-05T11:45:34.596Z,24.70
2022-12-05T11:46:41.831Z,23.10
2022-12-05T11:47:34.598Z,23.80
2022-12-05T11:48:34.585Z,22.60
2022-12-05T11:49:34.555Z,22.10
2022-12-05T11:50:34.576Z,22.30
2022-12-05T11:51:34.536Z,24.20
2022-12-05T11:52:40.239Z,23.40
2022-12-05T11:53:35.514Z,22.80
2022-12-05T11:55:35.487Z,24.60
2022-12-05T11:56:34.548Z,22.10
2022-12-05T11:57:34.458Z,21.90
2022-12-05T11:58:34.458Z,22.00
2022-12-05T11:59:34.438Z,23.80
2022-12-05T12:00:34.436Z,25.10
2022-12-05T12:01:34.474Z,22.90
2022-12-05T12:02:34.499Z,24.80
2022-12-05T12:03:34.503Z,22.40
2022-12-05T12:04:34.401Z,24.00
2022-12-05T12:05:34.417Z,22.90
2022-12-05T12:06:34.379Z,25.30
2022-12-05T12:07:34.391Z,23.80
2022-12-05T12:08:34.382Z,21.40
2022-12-05T12:09:34.405Z,22.60
2022-12-05T12:10:34.327Z,22.40
2022-12-05T12:11:34.328Z,24.60
2022-12-05T12:12:34.299Z,24.40
2022-12-05T12:13:34.289Z,22.20
2022-12-05T12:14:34.298Z,25.30
2022-12-05T12:15:34.280Z,26.00
2022-12-05T12:16:34.314Z,25.80
2022-12-05T12:17:34.250Z,23.60
2022-12-05T12:18:34.249Z,26.60
2022-12-05T12:19:34.230Z,27.10
2022-12-05T12:20:34.219Z,26.70
2022-12-05T12:21:38.594Z,27.00
2022-12-05T12:22:34.212Z,24.60
2022-12-05T12:23:34.181Z,24.30
2022-12-05T12:24:34.178Z,27.70
2022-12-05T12:25:34.160Z,26.40
2022-12-05T12:26:34.171Z,27.20
2022-12-05T12:27:34.156Z,28.30
2022-12-05T12:28:34.131Z,29.10
2022-12-05T12:29:34.122Z,27.50
2022-12-05T12:30:34.112Z,28.90
2022-12-05T12:31:34.147Z,28.70
2022-12-05T12:32:34.091Z,30.80
2022-12-05T12:33:34.081Z,31.00
2022-12-05T12:34:34.062Z,34.90
2022-12-05T12:35:34.117Z,31.60
2022-12-05T12:36:34.050Z,31.80
2022-12-05T12:37:34.079Z,31.80
2022-12-05T12:38:34.019Z,31.70
2022-12-05T12:39:34.031Z,28.90
2022-12-05T12:40:34.002Z,30.60
2022-12-05T12:41:34.059Z,30.80
2022-12-05T12:42:33.971Z,29.50
2022-12-05T12:43:53.224Z,30.50
2022-12-05T12:44:34.952Z,27.30
2022-12-05T12:45:34.007Z,30.00
2022-12-05T12:46:33.992Z,27.10
2022-12-05T12:47:33.954Z,29.50
2022-12-05T12:48:33.912Z,28.20
2022-12-05T12:49:33.922Z,31.60
2022-12-05T12:50:36.628Z,29.30
2022-12-05T12:51:34.892Z,26.80
2022-12-05T12:52:33.864Z,27.20
2022-12-05T12:53:33.869Z,27.50